Time;durP1;ratioP1;P1;durP2;ratioP2;P2;SDS_P1;SDS_P2;PMS_P1;PMS_P2;Temp;Humidity;BMP_temperature;BMP_pressure;BME280_temperature;BME280_humidity;BME280_pressure;Samples;Min_cycle;Max_cycle;Signal;HPM_P1;HPM_P2
2022/04/21 00:01:03;;;;;;;9.78;8.38;;;;;;;13.10;56.01;101304.49;1655633;86;21592;-64
2022/04/21 00:03:30;;;;;;;11.57;9.83;;;;;;;13.08;56.34;101306.28;1661476;86;21544;-64
2022/04/21 00:05:58;;;;;;;10.70;9.60;;;;;;;13.05;56.76;101302.84;1661625;85;21060;-64
2022/04/21 00:08:25;;;;;;;11.20;10.20;;;;;;;13.03;57.09;101307.22;1661659;86;21099;-63
2022/04/21 00:10:53;;;;;;;12.37;11.10;;;;;;;13.00;57.44;101308.58;1661307;86;21540;-64
2022/04/21 00:13:20;;;;;;;13.98;11.83;;;;;;;12.97;57.78;101312.58;1661706;86;21047;-64
2022/04/21 00:15:47;;;;;;;12.37;11.12;;;;;;;12.96;57.96;101318.69;1661435;86;21036;-64
2022/04/21 00:18:15;;;;;;;13.68;12.07;;;;;;;12.95;58.11;101319.59;1661291;86;21627;-64
2022/04/21 00:20:42;;;;;;;12.45;11.18;;;;;;;12.95;58.22;101323.95;1661498;86;21091;-64
2022/04/21 00:23:28;;;;;;;13.68;11.35;;;;;;;12.95;58.23;101309.59;1661410;86;21130;-64
2022/04/21 00:25:58;;;;;;;13.90;11.63;;;;;;;12.95;58.29;101312.20;1657478;86;21071;-64
2022/04/21 00:28:28;;;;;;;12.88;11.38;;;;;;;12.93;58.40;101310.94;1661653;86;21023;-64
2022/04/21 00:30:55;;;;;;;13.60;11.90;;;;;;;12.92;58.43;101311.81;1659311;86;21618;-63
2022/04/21 00:33:23;;;;;;;13.48;11.28;;;;;;;12.92;58.50;101302.67;1661054;86;21033;-65
2022/04/21 00:35:51;;;;;;;9.75;8.75;;;;;;;12.92;58.42;101297.45;1661370;86;21068;-64
2022/04/21 00:38:19;;;;;;;7.03;6.33;;;;;;;12.89;58.05;101300.14;1667962;86;21106;-64
2022/04/21 00:40:49;;;;;;;6.80;4.75;;;;;;;12.86;57.46;101294.98;1640122;87;21561;-63
2022/04/21 00:43:18;;;;;;;4.97;4.40;;;;;;;12.84;56.81;101294.15;1655340;87;21090;-63
2022/04/21 00:45:47;;;;;;;5.10;4.20;;;;;;;12.80;56.40;101289.89;1655530;86;21062;-64
2022/04/21 00:48:14;;;;;;;4.15;3.75;;;;;;;12.79;56.15;101289.49;1658144;86;21097;-63
2022/04/21 00:50:41;;;;;;;5.65;4.00;;;;;;;12.79;55.90;101286.88;1640623;87;21046;-65
2022/04/21 00:53:10;;;;;;;4.40;3.70;;;;;;;12.79;55.76;101276.44;1684713;84;21058;-64
2022/04/21 00:55:37;;;;;;;4.28;3.80;;;;;;;12.80;55.68;101267.69;1684374;85;21026;-63
2022/04/21 00:58:05;;;;;;;7.72;3.58;;;;;;;12.80;55.62;101272.91;1672622;86;21050;-63
2022/04/21 01:00:33;;;;;;;5.42;3.22;;;;;;;12.82;55.52;101265.04;1672705;86;21037;-64
2022/04/21 01:03:01;;;;;;;3.77;2.92;;;;;;;12.82;55.59;101265.91;1640138;87;21113;-63
2022/04/21 01:05:30;;;;;;;3.65;2.65;;;;;;;12.84;55.43;101266.73;1655759;87;21558;-63
2022/04/21 01:08:07;;;;;;;4.05;3.02;;;;;;;12.85;55.42;101265.84;1655418;87;21081;-63
2022/04/21 01:10:37;;;;;;;3.98;2.67;;;;;;;12.87;55.39;101264.06;1658054;86;21563;-63
2022/04/21 01:13:06;;;;;;;2.75;2.20;;;;;;;12.88;55.30;101259.70;1577719;90;21125;-63
2022/04/21 01:15:34;;;;;;;3.40;2.27;;;;;;;12.88;55.17;101256.63;1573685;90;21613;-65
2022/04/21 01:18:01;;;;;;;2.85;2.22;;;;;;;12.90;55.02;101263.97;1581111;90;21064;-63
2022/04/21 01:20:30;;;;;;;3.02;2.20;;;;;;;12.92;54.87;101263.96;1576342;90;21061;-64
2022/04/21 01:22:57;;;;;;;2.37;2.12;;;;;;;12.91;54.81;101270.94;1584489;90;21085;-62
2022/04/21 01:25:24;;;;;;;5.58;2.55;;;;;;;12.91;54.83;101268.32;1579314;90;21118;-63
2022/04/21 01:27:59;;;;;;;2.92;2.17;;;;;;;12.91;54.77;101270.94;1579031;90;21117;-63
2022/04/21 01:30:26;;;;;;;4.67;2.80;;;;;;;12.91;54.73;101268.32;1579170;90;21541;-63
2022/04/21 01:32:53;;;;;;;6.10;2.70;;;;;;;12.92;54.67;101263.48;1572155;90;21097;-63
2022/04/21 01:35:21;;;;;;;4.30;2.60;;;;;;;12.93;54.65;101260.00;1578901;90;21065;-63
2022/04/21 01:43:20;;;;;;;5.47;2.80;;;;;;;12.86;54.36;101247.96;1571891;90;21073;-63
2022/04/21 01:45:48;;;;;;;2.67;2.47;;;;;;;12.84;54.16;101248.45;1550127;91;21068;-63
2022/04/21 01:48:15;;;;;;;3.10;2.80;;;;;;;12.82;54.15;101243.70;1543929;92;21194;-63
2022/04/21 01:50:43;;;;;;;3.72;2.60;;;;;;;12.80;54.05;101249.41;1549725;92;21559;-63
2022/04/21 01:53:11;;;;;;;3.30;3.00;;;;;;;12.77;54.02;101245.58;1549809;92;21115;-62
2022/04/21 01:55:38;;;;;;;4.45;3.40;;;;;;;12.74;53.86;101246.08;1547748;92;21599;-63
2022/04/21 01:58:05;;;;;;;4.25;3.37;;;;;;;12.72;53.82;101253.95;1548551;92;21156;-64
2022/04/21 02:00:32;;;;;;;5.05;3.47;;;;;;;12.70;53.65;101262.70;1549121;92;21123;-63
2022/04/21 02:02:59;;;;;;;5.25;3.30;;;;;;;12.65;53.61;101260.19;1549978;92;21083;-62
2022/04/21 02:05:26;;;;;;;3.77;3.20;;;;;;;12.62;53.60;101262.89;1543814;92;21571;-63
2022/04/21 02:07:54;;;;;;;3.50;3.20;;;;;;;12.59;53.49;101262.94;1534093;92;21622;-64
2022/04/21 02:10:22;;;;;;;4.70;4.08;;;;;;;12.55;53.50;101263.91;1681329;83;21046;-63
2022/04/21 02:12:50;;;;;;;5.10;4.17;;;;;;;12.51;53.45;101274.00;1720832;83;21014;-64
2022/04/21 02:15:18;;;;;;;4.47;3.90;;;;;;;12.48;53.35;101270.16;1720937;83;21058;-64
2022/04/21 02:17:46;;;;;;;8.00;4.42;;;;;;;12.45;53.37;101271.52;1720719;83;21011;-63
2022/04/21 02:20:15;;;;;;;4.60;3.72;;;;;;;12.42;53.42;101271.60;1721524;83;21057;-63
2022/04/21 02:22:44;;;;;;;4.70;4.08;;;;;;;12.39;53.36;101272.09;1721046;83;21009;-64
2022/04/21 02:25:14;;;;;;;4.33;3.92;;;;;;;12.35;53.28;101277.83;1698281;84;21064;-63
2022/04/21 02:27:43;;;;;;;5.80;4.25;;;;;;;12.31;53.29;101276.17;1698731;84;21001;-63
2022/04/21 02:30:13;;;;;;;4.90;3.95;;;;;;;12.27;53.08;101274.52;1698763;84;21513;-63
2022/04/21 02:32:41;;;;;;;4.35;3.87;;;;;;;12.24;53.06;101265.47;1699030;84;21020;-63
2022/04/21 02:35:11;;;;;;;3.80;3.45;;;;;;;12.20;53.06;101267.69;1698457;84;21007;-63
2022/04/21 02:37:41;;;;;;;4.00;3.47;;;;;;;12.17;53.19;101267.77;1697051;84;21041;-64
2022/04/21 02:40:09;;;;;;;6.37;3.60;;;;;;;12.14;53.23;101263.91;1618230;89;21096;-64
2022/04/21 02:42:40;;;;;;;5.20;3.42;;;;;;;12.11;53.11;101266.59;1585685;90;21556;-63
2022/04/21 02:45:11;;;;;;;4.17;3.25;;;;;;;12.07;53.09;101265.80;1596200;90;21046;-63
2022/04/21 02:47:40;;;;;;;3.83;3.12;;;;;;;12.04;53.13;101274.11;1585833;89;21116;-64
2022/04/21 02:50:09;;;;;;;4.10;2.98;;;;;;;12.01;53.10;101281.53;1585564;90;21060;-63
2022/04/21 02:52:40;;;;;;;3.27;2.98;;;;;;;11.98;53.24;101278.14;1554835;90;21626;-62
2022/04/21 02:57:54;;;;;;;4.22;3.00;;;;;;;11.94;53.51;101273.87;1585623;90;21650;-64
2022/04/21 03:00:20;;;;;;;4.40;2.90;;;;;;;11.92;53.52;101278.26;1585758;90;21116;-64
2022/04/21 03:02:48;;;;;;;4.05;3.65;;;;;;;11.89;53.54;101278.33;1585769;90;21094;-64
2022/04/21 03:05:15;;;;;;;3.55;3.25;;;;;;;11.87;53.63;101276.20;1585785;89;21119;-63
2022/04/21 03:07:41;;;;;;;4.10;3.60;;;;;;;11.85;53.69;101277.98;1585765;89;21092;-63
2022/04/21 03:10:10;;;;;;;4.05;3.65;;;;;;;11.83;53.76;101283.66;1585975;90;21060;-63
2022/04/21 03:12:38;;;;;;;4.45;3.27;;;;;;;11.80;53.74;101279.36;1596152;90;21086;-63
2022/04/21 03:15:10;;;;;;;5.53;4.05;;;;;;;11.78;53.88;101281.13;1585775;90;21116;-63
2022/04/21 03:17:35;;;;;;;4.67;4.28;;;;;;;11.78;53.88;101282.88;1596591;90;21057;-64
2022/04/21 03:20:05;;;;;;;7.33;4.20;;;;;;;11.76;54.09;101287.25;1585968;89;21579;-64
2022/04/21 03:25:18;;;;;;;5.30;4.12;;;;;;;11.73;54.25;101282.08;1564496;91;21113;-64
2022/04/21 03:27:50;;;;;;;4.20;3.80;;;;;;;11.71;54.27;101282.55;1564488;92;21076;-63
2022/04/21 03:30:15;;;;;;;4.22;3.83;;;;;;;11.70;54.29;101287.37;1564622;92;21140;-63
2022/04/21 03:32:42;;;;;;;4.97;4.42;;;;;;;11.69;54.37;101284.33;1564669;92;21175;-63
2022/04/21 03:35:09;;;;;;;5.30;4.80;;;;;;;11.69;54.36;101285.63;1547964;92;21133;-63
2022/04/21 03:37:37;;;;;;;4.72;4.10;;;;;;;11.68;54.41;101278.72;1635215;85;21151;-63
2022/04/21 03:40:06;;;;;;;6.80;4.95;;;;;;;11.68;54.53;101282.62;1683079;85;21048;-63
2022/04/21 03:42:33;;;;;;;5.87;4.45;;;;;;;11.66;54.60;101277.45;1658415;86;21607;-63
2022/04/21 03:45:00;;;;;;;4.78;4.37;;;;;;;11.65;54.60;101271.77;1671337;85;21099;-63
2022/04/21 03:47:27;;;;;;;5.25;4.15;;;;;;;11.65;54.76;101276.11;1683274;85;21044;-64
2022/04/21 03:49:54;;;;;;;5.10;4.60;;;;;;;11.64;54.79;101286.14;1683271;85;21016;-64
2022/04/21 03:52:22;;;;;;;5.50;4.53;;;;;;;11.65;54.89;101282.63;1683463;85;21016;-64
2022/04/21 03:54:49;;;;;;;6.75;4.90;;;;;;;11.66;54.92;101281.77;1683182;85;21091;-64
2022/04/21 03:57:15;;;;;;;6.40;5.22;;;;;;;11.67;54.89;101288.71;1683147;85;21565;-64
2022/04/21 03:59:43;;;;;;;5.22;4.72;;;;;;;11.68;54.83;101283.93;1683317;85;21044;-64
2022/04/21 04:02:10;;;;;;;4.75;4.25;;;;;;;11.70;54.80;101284.77;1683360;85;21017;-64
2022/04/21 04:04:38;;;;;;;4.83;4.42;;;;;;;11.71;54.88;101291.68;1683182;85;21544;-64
2022/04/21 04:12:38;;;;;;;5.00;4.60;;;;;;;11.77;54.74;101290.27;1683209;85;21044;-62
2022/04/21 04:15:06;;;;;;;6.75;4.80;;;;;;;11.79;54.81;101293.70;1683401;85;21060;-63
2022/04/21 04:17:35;;;;;;;5.75;5.22;;;;;;;11.80;54.71;101292.83;1683070;85;21603;-63
2022/04/21 04:20:04;;;;;;;5.58;4.87;;;;;;;11.81;54.79;101295.87;1683167;85;21096;-62
2022/04/21 04:22:37;;;;;;;5.40;4.90;;;;;;;11.83;54.92;101298.84;1683320;85;21064;-63
2022/04/21 04:25:05;;;;;;;5.92;5.33;;;;;;;11.87;54.92;101293.14;1683367;85;21017;-63
2022/04/21 04:27:36;;;;;;;5.47;4.97;;;;;;;11.90;54.97;101296.98;1672131;85;21044;-63
2022/04/21 04:30:06;;;;;;;5.70;5.10;;;;;;;11.94;55.06;101302.56;1683217;85;21100;-63
2022/04/21 04:32:35;;;;;;;5.65;5.15;;;;;;;11.98;55.15;101299.00;1683557;85;21047;-64
2022/04/21 04:35:05;;;;;;;6.12;5.60;;;;;;;12.04;55.22;101301.49;1683228;85;21528;-63
2022/04/21 04:37:33;;;;;;;5.53;5.03;;;;;;;12.09;55.20;101299.67;1683173;85;21054;-62
2022/04/21 04:40:00;;;;;;;5.72;5.03;;;;;;;12.12;55.32;101309.59;1684851;85;21051;-62
2022/04/21 04:42:28;;;;;;;5.72;5.15;;;;;;;12.17;55.30;101305.59;1686776;85;21087;-62
2022/04/21 04:47:41;;;;;;;5.67;5.17;;;;;;;12.29;55.23;101307.96;1687118;85;21046;-62
2022/04/21 04:50:09;;;;;;;5.10;4.67;;;;;;;12.35;55.20;101307.84;1686783;85;21031;-61
2022/04/21 04:52:37;;;;;;;5.12;4.72;;;;;;;12.41;54.93;101318.15;1687081;85;21059;-61
2022/04/21 04:55:09;;;;;;;5.20;4.80;;;;;;;12.46;54.83;101315.45;1687111;85;20996;-63
2022/04/21 05:00:10;;;;;;;5.87;4.80;;;;;;;12.58;54.89;101321.28;1686311;85;21082;-63
2022/04/21 05:02:37;;;;;;;5.00;3.98;;;;;;;12.65;55.00;101316.80;1611959;89;21559;-60
2022/04/21 05:05:08;;;;;;;4.75;4.40;;;;;;;12.72;55.06;101319.23;1612017;89;21067;-62
2022/04/21 05:07:35;;;;;;;4.30;3.90;;;;;;;12.81;55.14;101317.74;1612429;88;21577;-63
2022/04/21 05:10:03;;;;;;;6.28;5.60;;;;;;;12.90;55.29;101319.30;1612138;89;21108;-62
2022/04/21 05:12:30;;;;;;;4.75;4.35;;;;;;;13.01;55.33;101327.30;1601037;89;21092;-62
2022/04/21 05:14:59;;;;;;;4.75;4.35;;;;;;;13.12;55.29;101326.22;1611916;89;21111;-62
2022/04/21 05:17:27;;;;;;;4.60;4.20;;;;;;;13.22;54.91;101324.67;1612170;89;21099;-61
2022/04/21 05:19:55;;;;;;;4.62;4.22;;;;;;;13.32;54.85;101330.52;1612128;89;21583;-63
2022/04/21 05:22:28;;;;;;;4.33;3.98;;;;;;;13.43;54.84;101328.52;1609813;89;21083;-63
2022/04/21 05:24:54;;;;;;;4.33;3.92;;;;;;;13.54;54.82;101330.44;1611146;89;21092;-62
2022/04/21 05:27:24;;;;;;;4.10;3.70;;;;;;;13.65;54.57;101329.70;1612045;89;21044;-62
2022/04/21 05:32:40;;;;;;;3.80;3.50;;;;;;;13.87;54.24;101332.17;1611871;89;21547;-62
2022/04/21 05:35:11;;;;;;;4.10;3.80;;;;;;;13.98;54.18;101338.00;1612080;89;21093;-62
2022/04/21 05:37:41;;;;;;;4.35;3.95;;;;;;;14.10;54.10;101333.73;1611991;89;21385;-62
2022/04/21 05:40:10;;;;;;;4.67;4.22;;;;;;;14.24;53.82;101330.30;1606359;89;21044;-62
2022/04/21 05:42:37;;;;;;;4.75;4.35;;;;;;;14.34;53.27;101334.40;1605603;89;21020;-62
2022/04/21 05:45:06;;;;;;;5.45;4.97;;;;;;;14.42;53.10;101340.31;1584741;89;21136;-63
2022/04/21 05:47:34;;;;;;;6.20;5.60;;;;;;;14.51;53.03;101336.55;1605464;89;21112;-62
2022/04/21 05:50:05;;;;;;;5.87;5.05;;;;;;;14.61;52.92;101335.41;1605210;89;21052;-63
2022/04/21 05:52:33;;;;;;;5.58;5.08;;;;;;;14.74;53.04;101346.36;1605423;89;21093;-62
2022/04/21 05:55:01;;;;;;;5.58;5.08;;;;;;;14.89;52.88;101335.44;1605428;89;21075;-62
2022/04/21 05:57:29;;;;;;;5.83;5.33;;;;;;;15.10;52.74;101340.03;1587683;89;21083;-62
2022/04/21 05:59:57;;;;;;;7.35;5.80;;;;;;;15.35;52.31;101340.98;1581193;91;21613;-61
2022/04/21 06:02:24;;;;;;;8.23;7.42;;;;;;;15.65;51.97;101340.00;1581059;91;21072;-62
2022/04/21 06:04:53;;;;;;;9.85;6.35;;;;;;;15.99;51.35;101334.00;1586100;88;21653;-61
2022/04/21 06:07:20;;;;;;;6.55;5.72;;;;;;;16.35;50.16;101336.23;1649614;86;21098;-62
2022/04/21 06:09:47;;;;;;;6.75;6.15;;;;;;;16.59;49.56;101339.34;1661812;86;21089;-63
2022/04/21 06:12:17;;;;;;;6.45;5.90;;;;;;;16.73;48.75;101344.92;1661227;86;21629;-59
2022/04/21 06:14:45;;;;;;;6.50;5.90;;;;;;;16.77;48.65;101339.95;1661408;86;21142;-62
2022/04/21 06:17:12;;;;;;;6.60;6.00;;;;;;;16.79;48.60;101347.32;1661654;86;21577;-62
2022/04/21 06:19:40;;;;;;;6.67;6.08;;;;;;;16.81;48.64;101345.05;1661039;86;21494;-62
2022/04/21 06:22:08;;;;;;;6.62;6.00;;;;;;;16.83;48.47;101341.03;1661259;86;21033;-62
2022/04/21 06:24:36;;;;;;;7.25;6.50;;;;;;;16.86;48.19;101338.27;1661463;86;21529;-61
2022/04/21 06:27:04;;;;;;;7.92;6.72;;;;;;;16.85;48.06;101345.77;1655118;86;21070;-62
2022/04/21 06:29:31;;;;;;;7.83;7.00;;;;;;;16.81;48.24;101348.12;1661668;86;20978;-61
2022/04/21 06:32:00;;;;;;;8.48;7.58;;;;;;;16.78;48.46;101353.48;1661322;86;21590;-61
2022/04/21 06:34:26;;;;;;;7.42;6.72;;;;;;;16.79;48.75;101349.95;1661636;86;21011;-61
2022/04/21 06:36:54;;;;;;;7.50;6.90;;;;;;;16.83;49.00;101343.66;1661239;86;21142;-61
2022/04/21 06:39:22;;;;;;;6.20;5.70;;;;;;;16.92;48.37;101349.86;1665911;86;21115;-62
2022/04/21 06:41:51;;;;;;;6.12;5.53;;;;;;;17.01;48.36;101352.16;1668245;85;21026;-61
2022/04/21 06:49:52;;;;;;;5.33;4.83;;;;;;;17.35;48.01;101356.47;1664774;86;21545;-61
2022/04/21 06:52:19;;;;;;;5.08;4.60;;;;;;;17.52;47.50;101355.83;1664573;85;21042;-61
2022/04/21 06:54:46;;;;;;;6.62;4.87;;;;;;;17.69;47.15;101364.76;1664743;85;21065;-62
2022/04/21 06:57:13;;;;;;;7.15;4.60;;;;;;;17.85;46.66;101360.56;1665135;86;21090;-63
2022/04/21 06:59:40;;;;;;;5.50;4.30;;;;;;;17.94;46.56;101363.73;1672334;86;21047;-61
2022/04/21 07:02:08;;;;;;;5.30;4.80;;;;;;;18.03;46.28;101356.77;1655289;87;21019;-62
2022/04/21 07:04:35;;;;;;;5.80;4.55;;;;;;;18.17;46.44;101364.92;1684463;85;21085;-61
2022/04/21 07:07:02;;;;;;;4.78;4.42;;;;;;;18.37;46.23;101358.31;1684780;85;21104;-61
2022/04/21 07:09:29;;;;;;;5.22;4.80;;;;;;;18.63;45.74;101368.57;1672536;86;21051;-61
2022/04/21 07:11:56;;;;;;;5.08;4.67;;;;;;;18.83;44.71;101369.86;1655624;87;21085;-61
2022/04/21 07:14:23;;;;;;;5.28;4.80;;;;;;;18.89;44.57;101365.63;1655335;87;21035;-62
2022/04/21 07:16:51;;;;;;;5.53;4.65;;;;;;;18.93;44.76;101364.55;1672610;86;21619;-61
2022/04/21 07:19:20;;;;;;;4.87;4.15;;;;;;;19.02;44.60;101370.70;1644978;86;21014;-63
2022/04/21 07:21:48;;;;;;;6.40;4.00;;;;;;;19.13;44.55;101364.47;1684819;85;21068;-62
2022/04/21 07:24:15;;;;;;;5.22;4.33;;;;;;;19.29;44.39;101366.76;1672477;86;21456;-61
2022/04/21 07:26:42;;;;;;;4.37;3.98;;;;;;;19.40;44.53;101361.86;1655543;87;21070;-60
2022/04/21 07:29:08;;;;;;;3.75;3.45;;;;;;;19.52;43.44;101366.14;1655323;86;21061;-65
2022/04/21 07:31:37;;;;;;;5.22;4.30;;;;;;;19.49;42.94;101372.45;1672043;86;21007;-64
2022/04/21 07:34:04;;;;;;;5.05;4.25;;;;;;;19.32;42.78;101367.95;1648073;87;21077;-64
2022/04/21 07:36:31;;;;;;;5.30;4.15;;;;;;;18.99;43.20;101362.94;1644889;87;21037;-64
2022/04/21 07:38:58;;;;;;;5.85;4.40;;;;;;;18.65;43.78;101361.45;1672053;86;22611;-63
2022/04/21 07:41:25;;;;;;;5.10;4.60;;;;;;;18.33;44.89;101362.01;1669350;86;21043;-65
2022/04/21 07:43:53;;;;;;;5.35;4.85;;;;;;;18.03;45.63;101360.27;1666900;86;21075;-64
2022/04/21 07:46:19;;;;;;;9.38;5.53;;;;;;;17.75;46.27;101359.23;1666029;86;21550;-63
2022/04/21 07:51:34;;;;;;;6.03;5.42;;;;;;;17.28;47.60;101366.86;1669443;86;21038;-67
2022/04/21 07:54:02;;;;;;;6.28;5.70;;;;;;;17.06;48.41;101364.67;1668556;85;21038;-64
2022/04/21 07:56:29;;;;;;;7.95;6.03;;;;;;;16.90;48.81;101365.70;1668845;86;21122;-65
2022/04/21 07:58:56;;;;;;;8.00;6.33;;;;;;;16.76;49.31;101366.69;1668834;86;21067;-64
2022/04/21 08:01:23;;;;;;;6.78;6.17;;;;;;;16.69;49.54;101366.98;1668986;86;21071;-64
2022/04/21 08:03:52;;;;;;;6.80;6.03;;;;;;;16.62;49.48;101365.48;1666359;85;21036;-65
2022/04/21 08:06:19;;;;;;;6.87;6.25;;;;;;;16.57;49.68;101367.44;1659479;86;21065;-65
2022/04/21 08:08:47;;;;;;;6.05;5.45;;;;;;;16.55;49.89;101371.89;1668567;86;21067;-65
2022/04/21 08:11:13;;;;;;;7.40;6.75;;;;;;;16.50;50.13;101372.05;1668917;86;21149;-65
2022/04/21 08:13:40;;;;;;;6.85;5.90;;;;;;;16.48;50.25;101372.98;1667786;86;21023;-64
2022/04/21 08:16:09;;;;;;;8.03;6.50;;;;;;;16.47;50.50;101371.25;1668018;86;21059;-65
2022/04/21 08:18:37;;;;;;;13.03;7.80;;;;;;;16.48;50.87;101372.98;1667991;86;21072;-62
2022/04/21 08:21:06;;;;;;;8.00;7.25;;;;;;;16.50;50.96;101372.50;1667966;84;21047;-66
2022/04/21 08:23:36;;;;;;;9.03;8.10;;;;;;;16.52;51.04;101375.48;1668177;85;21059;-65
2022/04/21 08:34:20;;;;;;;10.85;9.73;;;;;;;16.50;50.88;101363.30;1666308;86;21093;-65
2022/04/21 08:36:46;;;;;;;10.95;9.93;;;;;;;16.48;50.82;101368.59;1667655;86;20990;-64
2022/04/21 08:39:13;;;;;;;11.73;10.53;;;;;;;16.48;50.79;101370.35;1659702;86;21101;-63
2022/04/21 08:41:42;;;;;;;10.75;9.80;;;;;;;16.46;50.62;101365.61;1658874;86;21442;-63
2022/04/21 08:44:10;;;;;;;13.62;10.60;;;;;;;16.46;50.34;101364.30;1658026;86;21047;-64
2022/04/21 08:46:39;;;;;;;12.00;10.80;;;;;;;16.45;50.24;101367.38;1658694;86;21551;-64
2022/04/21 08:49:06;;;;;;;11.20;10.13;;;;;;;16.45;50.24;101360.80;1660508;86;21075;-65
2022/04/21 08:51:34;;;;;;;13.38;10.75;;;;;;;16.46;50.30;101361.67;1659448;86;21524;-65
2022/04/21 08:54:02;;;;;;;11.73;10.63;;;;;;;16.47;50.35;101360.73;1656583;86;21049;-65
2022/04/21 08:56:31;;;;;;;11.57;10.40;;;;;;;16.48;50.36;101367.72;1658431;86;21050;-65
2022/04/21 08:58:58;;;;;;;11.38;10.03;;;;;;;16.50;50.27;101368.56;1648934;86;21589;-65
2022/04/21 09:01:26;;;;;;;11.18;10.08;;;;;;;16.52;50.38;101360.16;1660994;86;21035;-65
2022/04/21 09:03:55;;;;;;;12.15;10.82;;;;;;;16.55;50.50;101362.69;1651687;86;21095;-65
2022/04/21 09:06:24;;;;;;;12.50;11.20;;;;;;;16.60;50.46;101362.05;1657184;86;21607;-65
2022/04/21 09:09:21;;;;;;;12.33;10.78;;;;;;;16.66;50.14;101367.08;1660218;86;21070;-66
2022/04/21 09:11:52;;;;;;;12.88;11.73;;;;;;;16.68;49.79;101361.30;1620694;87;21110;-66
2022/04/21 09:14:20;;;;;;;12.58;11.45;;;;;;;16.71;49.71;101365.16;1599819;88;21128;-65
2022/04/21 09:16:48;;;;;;;12.85;11.53;;;;;;;16.71;49.54;101362.52;1607002;88;21121;-66
2022/04/21 09:19:15;;;;;;;13.78;11.63;;;;;;;16.72;49.80;101361.59;1600107;87;22261;-65
2022/04/21 09:21:42;;;;;;;14.73;11.97;;;;;;;16.75;49.81;101358.87;1624732;87;21010;-65
2022/04/21 09:24:25;;;;;;;15.18;11.80;;;;;;;16.79;49.56;101357.84;1607864;88;21349;-65
2022/04/21 09:26:53;;;;;;;14.40;12.45;;;;;;;16.81;49.50;101357.32;1605716;88;21058;-66
2022/04/21 09:29:25;;;;;;;12.80;11.70;;;;;;;16.81;49.48;101352.06;1617530;88;21076;-65
2022/04/21 09:32:02;;;;;;;12.82;11.63;;;;;;;16.81;49.20;101346.80;1601571;88;21090;-66
2022/04/21 09:34:30;;;;;;;11.53;10.43;;;;;;;16.80;49.13;101342.45;1595233;89;21627;-66
2022/04/21 09:36:57;;;;;;;12.37;11.18;;;;;;;16.77;48.84;101338.64;1619802;87;21080;-65
2022/04/21 09:39:27;;;;;;;12.00;10.98;;;;;;;16.71;48.77;101338.39;1637478;87;21643;-65
2022/04/21 09:41:54;;;;;;;12.40;11.30;;;;;;;16.66;48.86;101333.78;1600324;88;21487;-65
2022/04/21 09:47:20;;;;;;;11.40;10.38;;;;;;;16.56;49.20;101330.23;1606567;88;21062;-65
2022/04/21 09:49:48;;;;;;;11.00;9.90;;;;;;;16.50;49.24;101331.78;1618550;88;21059;-65
2022/04/21 09:52:28;;;;;;;11.57;10.48;;;;;;;16.46;49.04;101338.03;1609150;88;21035;-66
2022/04/21 09:54:56;;;;;;;11.22;10.23;;;;;;;16.42;49.23;101339.92;1579483;90;21114;-65
2022/04/21 09:57:31;;;;;;;12.03;10.80;;;;;;;16.38;49.27;101334.38;1575011;90;21204;-66
2022/04/21 09:59:59;;;;;;;12.28;10.98;;;;;;;16.38;49.29;101337.45;1607703;88;20995;-66
2022/04/21 10:04:58;;;;;;;10.83;9.90;;;;;;;16.39;49.37;101353.59;1567049;90;21148;-65
2022/04/21 10:07:25;;;;;;;12.70;10.55;;;;;;;16.41;49.64;101349.14;1580308;88;21066;-65
2022/04/21 10:09:51;;;;;;;13.55;11.25;;;;;;;16.42;49.52;101352.19;1628307;88;21043;-66
2022/04/21 10:12:18;;;;;;;13.58;12.25;;;;;;;16.42;49.63;101355.68;1606057;89;21029;-66
2022/04/21 10:14:47;;;;;;;11.83;10.63;;;;;;;16.45;49.84;101346.80;1612990;89;21132;-65
2022/04/21 10:17:16;;;;;;;13.95;12.37;;;;;;;16.48;49.90;101351.96;1612352;89;21034;-66
2022/04/21 10:19:43;;;;;;;13.35;11.95;;;;;;;16.50;49.80;101356.28;1611974;89;21117;-65
2022/04/21 10:22:13;;;;;;;13.08;11.88;;;;;;;16.53;49.79;101357.92;1611060;89;21116;-67
2022/04/21 10:24:41;;;;;;;13.18;11.28;;;;;;;16.56;49.54;101360.45;1630340;88;21576;-65
2022/04/21 10:27:36;;;;;;;14.43;11.97;;;;;;;16.57;49.51;101355.61;1616188;89;21045;-65
2022/04/21 10:30:23;;;;;;;14.07;12.63;;;;;;;16.58;49.41;101363.88;1614277;87;21057;-66
2022/04/21 10:33:01;;;;;;;13.48;12.18;;;;;;;16.57;49.14;101360.39;1533632;92;21067;-65
2022/04/21 10:35:38;;;;;;;13.32;12.03;;;;;;;16.54;49.24;101371.03;1531635;92;21125;-65
2022/04/21 10:38:17;;;;;;;13.00;11.90;;;;;;;16.52;49.02;101372.85;1533932;92;21076;-66
2022/04/21 10:41:05;;;;;;;13.43;12.13;;;;;;;16.46;49.07;101377.43;1489416;95;21056;-67
2022/04/21 10:43:56;;;;;;;14.58;12.33;;;;;;;16.38;49.06;101379.48;1496492;96;21097;-66
2022/04/21 10:48:54;;;;;;;14.07;12.65;;;;;;;16.17;49.69;101392.91;1444574;98;21496;-66
2022/04/21 10:57:16;;;;;;;14.07;12.53;;;;;;;15.86;50.49;101436.39;1407520;101;21163;-64
2022/04/21 10:59:51;;;;;;;13.13;10.98;;;;;;;15.75;50.72;101441.11;1407630;101;21132;-66
2022/04/21 11:02:18;;;;;;;11.73;10.53;;;;;;;15.64;50.46;101453.70;1394372;100;21649;-66
2022/04/21 11:04:44;;;;;;;11.40;6.67;;;;;;;15.50;50.57;101449.82;1411530;100;21189;-66
2022/04/21 11:07:13;;;;;;;7.37;5.50;;;;;;;15.40;50.11;101457.92;1384872;102;21189;-64
2022/04/21 11:09:51;;;;;;;9.58;6.85;;;;;;;15.28;49.62;101456.12;1389232;102;21185;-65
2022/04/21 11:12:44;;;;;;;12.68;11.38;;;;;;;15.11;50.01;101454.44;1386588;102;21666;-65
2022/04/21 11:15:39;;;;;;;13.85;12.65;;;;;;;15.01;50.91;101452.99;1388822;102;21258;-65
2022/04/21 11:18:09;;;;;;;13.32;12.15;;;;;;;14.94;51.50;101430.50;1362616;103;21149;-65
2022/04/21 11:20:43;;;;;;;15.15;13.65;;;;;;;14.91;51.94;101430.58;1355004;104;21696;-65
2022/04/21 11:23:12;;;;;;;13.90;12.40;;;;;;;14.89;52.41;101427.14;1314050;108;21162;-65
2022/04/21 11:25:41;;;;;;;14.35;12.68;;;;;;;14.84;52.96;101425.12;1314794;108;21177;-65
2022/04/21 11:28:10;;;;;;;14.43;12.82;;;;;;;14.85;52.93;101438.61;1359830;99;21524;-65
2022/04/21 11:30:36;;;;;;;17.62;15.83;;;;;;;14.84;53.66;101450.02;1447943;94;21090;-65
2022/04/21 11:33:10;;;;;;;17.00;15.38;;;;;;;14.83;54.24;101451.77;1530086;92;21122;-66
2022/04/21 11:35:38;;;;;;;15.63;13.93;;;;;;;14.83;54.40;101445.66;1511034;94;21084;-65
2022/04/21 11:38:06;;;;;;;15.65;13.90;;;;;;;14.81;54.42;101446.16;1485910;95;21098;-65
2022/04/21 11:40:38;;;;;;;17.90;15.68;;;;;;;14.79;54.54;101450.58;1483654;95;21686;-66
2022/04/21 11:43:14;;;;;;;17.70;15.88;;;;;;;14.76;54.80;101451.52;1455821;98;21113;-65
2022/04/21 11:46:03;;;;;;;18.20;14.83;;;;;;;14.74;55.03;101461.63;1529737;89;21492;-67
2022/04/21 11:48:38;;;;;;;16.55;14.83;;;;;;;14.72;55.31;101458.19;1563224;90;21575;-64
2022/04/21 11:51:05;;;;;;;18.00;15.13;;;;;;;14.68;55.37;101460.91;1568874;90;21525;-65
2022/04/21 11:53:35;;;;;;;15.75;13.22;;;;;;;14.64;55.60;101433.08;1588267;87;21091;-65
2022/04/21 11:56:04;;;;;;;15.25;12.90;;;;;;;14.60;55.50;101418.35;1641977;86;21563;-65
2022/04/21 11:58:36;;;;;;;17.40;14.90;;;;;;;14.51;55.63;101400.26;1648325;86;21100;-65
2022/04/21 12:06:58;;;;;;;17.80;15.38;;;;;;;14.24;56.06;101421.91;1638745;86;21114;-66
2022/04/21 12:09:27;;;;;;;16.80;15.20;;;;;;;14.16;56.37;101436.09;1583939;89;21063;-66
2022/04/21 12:11:57;;;;;;;16.42;14.10;;;;;;;14.11;56.73;101435.36;1599376;89;21169;-66
2022/04/21 12:14:24;;;;;;;9.60;6.22;;;;;;;14.06;56.79;101416.28;1586391;89;21104;-66
2022/04/21 12:17:04;;;;;;;8.00;7.03;;;;;;;13.97;54.07;101435.72;1586635;89;21101;-65
2022/04/21 12:19:37;;;;;;;10.98;9.53;;;;;;;13.93;54.17;101434.52;1517390;93;21627;-66
2022/04/21 12:22:10;;;;;;;9.55;8.30;;;;;;;13.93;54.72;101420.97;1518020;93;21074;-65
2022/04/21 12:24:54;;;;;;;5.40;4.90;;;;;;;13.93;54.53;101430.59;1515916;93;21066;-66
2022/04/21 12:27:34;;;;;;;4.28;3.67;;;;;;;13.89;53.37;101401.01;1515677;93;21079;-65
2022/04/21 12:30:07;;;;;;;5.60;3.30;;;;;;;13.85;52.14;101388.91;1519530;93;21141;-65